sensor_id;sensor_type;location;lat;lon;timestamp;temperature;humidity
2158;DHT22;41972;48.774;9.282;2023-07-13T00:00:27;20.10;99.90
2158;DHT22;41972;48.774;9.282;2023-07-13T00:02:53;20.10;99.90
2158;DHT22;41972;48.774;9.282;2023-07-13T00:05:20;20.00;99.90
2158;DHT22;41972;48.774;9.282;2023-07-13T00:07:46;19.90;99.90
2158;DHT22;41972;48.774;9.282;2023-07-13T00:10:12;19.90;99.90
2158;DHT22;41972;48.774;9.282;2023-07-13T00:12:38;19.80;99.90
2158;DHT22;41972;48.774;9.282;2023-07-13T00:15:12;19.70;99.90
2158;DHT22;41972;48.774;9.282;2023-07-13T00:17:38;19.70;99.90
2158;DHT22;41972;48.774;9.282;2023-07-13T00:20:05;19.70;99.90
2158;DHT22;41972;48.774;9.282;2023-07-13T00:22:31;19.60;99.90
2158;DHT22;41972;48.774;9.282;2023-07-13T00:24:57;19.50;99.90
2158;DHT22;41972;48.774;9.282;2023-07-13T00:27:23;19.50;99.90
2158;DHT22;41972;48.774;9.282;2023-07-13T00:29:49;19.60;99.90
2158;DHT22;41972;48.774;9.282;2023-07-13T00:32:15;19.50;99.90
2158;DHT22;41972;48.774;9.282;2023-07-13T00:34:40;19.50;99.90
2158;DHT22;41972;48.774;9.282;2023-07-13T00:37:07;19.30;99.90
2158;DHT22;41972;48.774;9.282;2023-07-13T00:39:33;19.40;99.90
2158;DHT22;41972;48.774;9.282;2023-07-13T00:42:00;19.40;99.90
2158;DHT22;41972;48.774;9.282;2023-07-13T00:44:26;19.50;99.90
2158;DHT22;41972;48.774;9.282;2023-07-13T00:46:51;19.30;99.90
2158;DHT22;41972;48.774;9.282;2023-07-13T00:49:20;19.30;99.90
2158;DHT22;41972;48.774;9.282;2023-07-13T00:51:57;19.30;99.90
2158;DHT22;41972;48.774;9.282;2023-07-13T00:54:30;19.00;99.90
2158;DHT22;41972;48.774;9.282;2023-07-13T00:57:00;18.90;99.90
2158;DHT22;41972;48.774;9.282;2023-07-13T00:59:27;18.90;99.90
2158;DHT22;41972;48.774;9.282;2023-07-13T01:01:53;18.70;99.90
2158;DHT22;41972;48.774;9.282;2023-07-13T01:04:20;18.70;99.90
2158;DHT22;41972;48.774;9.282;2023-07-13T01:06:46;18.70;99.90
2158;DHT22;41972;48.774;9.282;2023-07-13T01:09:12;18.70;99.90
2158;DHT22;41972;48.774;9.282;2023-07-13T01:11:39;18.70;99.90
2158;DHT22;41972;48.774;9.282;2023-07-13T01:14:04;18.70;99.90
2158;DHT22;41972;48.774;9.282;2023-07-13T01:16:35;18.70;99.90
2158;DHT22;41972;48.774;9.282;2023-07-13T01:19:05;18.60;99.90
2158;DHT22;41972;48.774;9.282;2023-07-13T01:21:32;18.60;99.90
2158;DHT22;41972;48.774;9.282;2023-07-13T01:23:58;18.40;99.90
2158;DHT22;41972;48.774;9.282;2023-07-13T01:26:24;18.30;99.90
2158;DHT22;41972;48.774;9.282;2023-07-13T01:28:49;18.40;99.90
2158;DHT22;41972;48.774;9.282;2023-07-13T01:31:15;18.40;99.90
2158;DHT22;41972;48.774;9.282;2023-07-13T01:33:41;18.40;99.90
2158;DHT22;41972;48.774;9.282;2023-07-13T01:36:08;18.30;99.90
2158;DHT22;41972;48.774;9.282;2023-07-13T01:38:35;18.30;99.90
2158;DHT22;41972;48.774;9.282;2023-07-13T01:41:01;18.30;99.90
2158;DHT22;41972;48.774;9.282;2023-07-13T01:43:27;18.20;99.90
2158;DHT22;41972;48.774;9.282;2023-07-13T01:45:53;18.00;99.90
2158;DHT22;41972;48.774;9.282;2023-07-13T01:48:19;17.70;99.90
2158;DHT22;41972;48.774;9.282;2023-07-13T01:50:46;17.50;99.90
2158;DHT22;41972;48.774;9.282;2023-07-13T01:53:12;17.50;99.90
2158;DHT22;41972;48.774;9.282;2023-07-13T01:55:38;17.50;99.90
2158;DHT22;41972;48.774;9.282;2023-07-13T01:58:04;17.40;99.90
2158;DHT22;41972;48.774;9.282;2023-07-13T02:00:30;17.30;99.90
2158;DHT22;41972;48.774;9.282;2023-07-13T02:02:56;17.00;99.90
2158;DHT22;41972;48.774;9.282;2023-07-13T02:05:21;17.10;99.90
2158;DHT22;41972;48.774;9.282;2023-07-13T02:07:47;16.90;99.90
2158;DHT22;41972;48.774;9.282;2023-07-13T02:10:13;16.90;99.90
2158;DHT22;41972;48.774;9.282;2023-07-13T02:12:39;16.80;99.90
2158;DHT22;41972;48.774;9.282;2023-07-13T02:15:06;16.60;99.90
2158;DHT22;41972;48.774;9.282;2023-07-13T02:17:31;16.60;99.90
2158;DHT22;41972;48.774;9.282;2023-07-13T02:19:57;16.50;99.90
2158;DHT22;41972;48.774;9.282;2023-07-13T02:22:23;16.50;99.90
2158;DHT22;41972;48.774;9.282;2023-07-13T02:24:49;16.10;99.90
2158;DHT22;41972;48.774;9.282;2023-07-13T02:27:15;15.90;99.90
2158;DHT22;41972;48.774;9.282;2023-07-13T02:29:40;16.00;99.90
2158;DHT22;41972;48.774;9.282;2023-07-13T02:32:06;16.00;99.90
2158;DHT22;41972;48.774;9.282;2023-07-13T02:34:32;16.10;99.90
2158;DHT22;41972;48.774;9.282;2023-07-13T02:36:57;15.70;99.90
2158;DHT22;41972;48.774;9.282;2023-07-13T02:39:23;15.60;99.90
2158;DHT22;41972;48.774;9.282;2023-07-13T02:41:48;15.70;99.90
2158;DHT22;41972;48.774;9.282;2023-07-13T02:44:15;15.50;99.90
2158;DHT22;41972;48.774;9.282;2023-07-13T03:23:23;14.60;99.90
2158;DHT22;41972;48.774;9.282;2023-07-13T03:25:50;14.50;99.90
2158;DHT22;41972;48.774;9.282;2023-07-13T03:28:26;14.60;99.90
2158;DHT22;41972;48.774;9.282;2023-07-13T03:31:09;14.50;99.90
2158;DHT22;41972;48.774;9.282;2023-07-13T03:33:36;14.70;99.90
2158;DHT22;41972;48.774;9.282;2023-07-13T03:36:03;14.90;99.90
2158;DHT22;41972;48.774;9.282;2023-07-13T03:38:29;14.90;99.90
2158;DHT22;41972;48.774;9.282;2023-07-13T03:40:55;15.00;99.90
2158;DHT22;41972;48.774;9.282;2023-07-13T03:43:20;15.10;99.90
2158;DHT22;41972;48.774;9.282;2023-07-13T03:45:46;15.30;99.90
2158;DHT22;41972;48.774;9.282;2023-07-13T03:48:13;15.30;99.90
2158;DHT22;41972;48.774;9.282;2023-07-13T03:50:38;15.40;99.90
2158;DHT22;41972;48.774;9.282;2023-07-13T03:53:04;15.60;99.90
2158;DHT22;41972;48.774;9.282;2023-07-13T03:55:30;15.80;99.90
2158;DHT22;41972;48.774;9.282;2023-07-13T04:00:45;15.90;99.90
2158;DHT22;41972;48.774;9.282;2023-07-13T04:03:11;15.90;99.90
2158;DHT22;41972;48.774;9.282;2023-07-13T04:05:36;16.00;99.90
2158;DHT22;41972;48.774;9.282;2023-07-13T04:08:02;16.30;99.90
2158;DHT22;41972;48.774;9.282;2023-07-13T04:10:28;16.40;99.90
2158;DHT22;41972;48.774;9.282;2023-07-13T04:12:53;16.50;99.90
2158;DHT22;41972;48.774;9.282;2023-07-13T04:15:19;16.40;99.90
2158;DHT22;41972;48.774;9.282;2023-07-13T04:17:44;16.50;99.90
2158;DHT22;41972;48.774;9.282;2023-07-13T04:20:10;16.40;99.90
2158;DHT22;41972;48.774;9.282;2023-07-13T04:22:36;16.30;99.90
2158;DHT22;41972;48.774;9.282;2023-07-13T04:25:01;16.40;99.90
2158;DHT22;41972;48.774;9.282;2023-07-13T04:27:27;16.50;99.90
2158;DHT22;41972;48.774;9.282;2023-07-13T04:29:54;16.50;99.90
2158;DHT22;41972;48.774;9.282;2023-07-13T04:32:19;16.50;99.90
2158;DHT22;41972;48.774;9.282;2023-07-13T04:34:45;16.70;99.90
2158;DHT22;41972;48.774;9.282;2023-07-13T04:37:10;16.70;99.90
2158;DHT22;41972;48.774;9.282;2023-07-13T04:39:36;16.70;99.90
2158;DHT22;41972;48.774;9.282;2023-07-13T04:42:03;16.80;99.90
2158;DHT22;41972;48.774;9.282;2023-07-13T04:44:29;16.90;99.90
2158;DHT22;41972;48.774;9.282;2023-07-13T04:46:54;17.10;99.90
2158;DHT22;41972;48.774;9.282;2023-07-13T04:49:20;17.00;99.90
2158;DHT22;41972;48.774;9.282;2023-07-13T04:51:45;16.90;99.90
2158;DHT22;41972;48.774;9.282;2023-07-13T04:54:11;16.80;99.90
2158;DHT22;41972;48.774;9.282;2023-07-13T04:56:36;16.90;99.90
2158;DHT22;41972;48.774;9.282;2023-07-13T04:59:02;17.20;99.90
2158;DHT22;41972;48.774;9.282;2023-07-13T05:01:27;17.40;99.90
2158;DHT22;41972;48.774;9.282;2023-07-13T05:03:53;17.50;99.90
2158;DHT22;41972;48.774;9.282;2023-07-13T05:06:21;17.40;99.90
2158;DHT22;41972;48.774;9.282;2023-07-13T05:08:46;17.60;99.90
2158;DHT22;41972;48.774;9.282;2023-07-13T05:11:12;17.40;99.90
2158;DHT22;41972;48.774;9.282;2023-07-13T05:13:37;17.20;99.90
2158;DHT22;41972;48.774;9.282;2023-07-13T05:16:04;17.70;99.90
2158;DHT22;41972;48.774;9.282;2023-07-13T05:18:32;17.80;99.90
2158;DHT22;41972;48.774;9.282;2023-07-13T05:21:04;18.10;99.90
2158;DHT22;41972;48.774;9.282;2023-07-13T05:23:31;18.30;99.90
2158;DHT22;41972;48.774;9.282;2023-07-13T05:25:57;18.80;99.90
2158;DHT22;41972;48.774;9.282;2023-07-13T05:28:22;19.30;99.90
2158;DHT22;41972;48.774;9.282;2023-07-13T05:30:49;19.60;99.90
2158;DHT22;41972;48.774;9.282;2023-07-13T05:33:15;20.40;99.90
2158;DHT22;41972;48.774;9.282;2023-07-13T05:35:41;20.80;99.90
2158;DHT22;41972;48.774;9.282;2023-07-13T05:38:06;20.70;99.90
2158;DHT22;41972;48.774;9.282;2023-07-13T05:40:32;20.60;99.90
2158;DHT22;41972;48.774;9.282;2023-07-13T05:42:57;20.30;99.90
2158;DHT22;41972;48.774;9.282;2023-07-13T05:45:23;20.70;99.90
2158;DHT22;41972;48.774;9.282;2023-07-13T05:47:49;21.00;99.90
2158;DHT22;41972;48.774;9.282;2023-07-13T05:50:14;20.80;99.90
2158;DHT22;41972;48.774;9.282;2023-07-13T05:52:40;20.70;99.90
2158;DHT22;41972;48.774;9.282;2023-07-13T05:55:06;21.10;99.90
2158;DHT22;41972;48.774;9.282;2023-07-13T05:57:31;21.30;99.90
2158;DHT22;41972;48.774;9.282;2023-07-13T05:59:57;21.20;99.90
2158;DHT22;41972;48.774;9.282;2023-07-13T06:02:23;21.40;99.90
2158;DHT22;41972;48.774;9.282;2023-07-13T06:04:48;21.30;99.90
2158;DHT22;41972;48.774;9.282;2023-07-13T06:07:14;21.40;99.90
2158;DHT22;41972;48.774;9.282;2023-07-13T06:09:40;21.50;99.90
2158;DHT22;41972;48.774;9.282;2023-07-13T06:12:06;21.60;99.90
2158;DHT22;41972;48.774;9.282;2023-07-13T06:14:31;21.60;99.90
2158;DHT22;41972;48.774;9.282;2023-07-13T06:16:57;21.20;99.90
2158;DHT22;41972;48.774;9.282;2023-07-13T06:19:22;21.60;99.90
2158;DHT22;41972;48.774;9.282;2023-07-13T06:21:48;22.00;99.90
2158;DHT22;41972;48.774;9.282;2023-07-13T06:24:13;22.80;99.90
2158;DHT22;41972;48.774;9.282;2023-07-13T06:26:39;23.00;99.90
2158;DHT22;41972;48.774;9.282;2023-07-13T06:29:04;23.10;99.90
2158;DHT22;41972;48.774;9.282;2023-07-13T06:31:32;23.50;99.90
2158;DHT22;41972;48.774;9.282;2023-07-13T06:33:58;23.90;99.90
2158;DHT22;41972;48.774;9.282;2023-07-13T06:36:23;24.50;99.90
2158;DHT22;41972;48.774;9.282;2023-07-13T06:38:49;24.80;99.90
2158;DHT22;41972;48.774;9.282;2023-07-13T06:41:14;26.20;99.90
2158;DHT22;41972;48.774;9.282;2023-07-13T06:43:40;27.40;99.90
2158;DHT22;41972;48.774;9.282;2023-07-13T06:46:06;25.00;99.90
2158;DHT22;41972;48.774;9.282;2023-07-13T06:48:32;23.30;99.90
2158;DHT22;41972;48.774;9.282;2023-07-13T06:50:57;23.70;99.90
2158;DHT22;41972;48.774;9.282;2023-07-13T06:53:23;24.30;99.90
2158;DHT22;41972;48.774;9.282;2023-07-13T06:55:49;26.40;99.90
2158;DHT22;41972;48.774;9.282;2023-07-13T06:58:16;28.00;99.90
2158;DHT22;41972;48.774;9.282;2023-07-13T07:00:42;30.10;99.90
2158;DHT22;41972;48.774;9.282;2023-07-13T07:03:08;30.20;99.90
2158;DHT22;41972;48.774;9.282;2023-07-13T07:05:34;29.50;99.90
2158;DHT22;41972;48.774;9.282;2023-07-13T07:07:59;29.00;99.90
2158;DHT22;41972;48.774;9.282;2023-07-13T07:10:25;28.00;99.90
2158;DHT22;41972;48.774;9.282;2023-07-13T07:12:51;29.20;99.90
2158;DHT22;41972;48.774;9.282;2023-07-13T07:15:18;30.50;99.90
2158;DHT22;41972;48.774;9.282;2023-07-13T07:17:45;29.90;99.90
2158;DHT22;41972;48.774;9.282;2023-07-13T07:20:12;31.10;99.90
2158;DHT22;41972;48.774;9.282;2023-07-13T07:22:37;30.20;99.90
2158;DHT22;41972;48.774;9.282;2023-07-13T07:25:03;30.10;99.90
2158;DHT22;41972;48.774;9.282;2023-07-13T07:27:29;29.20;99.90
2158;DHT22;41972;48.774;9.282;2023-07-13T07:29:54;31.20;99.90
2158;DHT22;41972;48.774;9.282;2023-07-13T07:32:20;29.60;99.90
2158;DHT22;41972;48.774;9.282;2023-07-13T07:34:46;30.60;99.90
2158;DHT22;41972;48.774;9.282;2023-07-13T07:37:13;31.80;99.90
2158;DHT22;41972;48.774;9.282;2023-07-13T07:39:39;31.50;99.90
2158;DHT22;41972;48.774;9.282;2023-07-13T07:42:05;29.40;99.90
2158;DHT22;41972;48.774;9.282;2023-07-13T07:44:31;29.00;99.90
2158;DHT22;41972;48.774;9.282;2023-07-13T07:46:57;30.50;99.90
2158;DHT22;41972;48.774;9.282;2023-07-13T07:49:23;31.70;99.90
2158;DHT22;41972;48.774;9.282;2023-07-13T07:51:48;30.30;99.90
2158;DHT22;41972;48.774;9.282;2023-07-13T07:54:14;31.40;99.90
2158;DHT22;41972;48.774;9.282;2023-07-13T07:56:40;30.90;99.90
2158;DHT22;41972;48.774;9.282;2023-07-13T07:59:05;32.50;99.90
2158;DHT22;41972;48.774;9.282;2023-07-13T08:01:31;33.50;99.90
2158;DHT22;41972;48.774;9.282;2023-07-13T08:03:57;32.60;99.90
2158;DHT22;41972;48.774;9.282;2023-07-13T08:06:22;32.00;99.90
2158;DHT22;41972;48.774;9.282;2023-07-13T08:08:48;31.70;99.90
2158;DHT22;41972;48.774;9.282;2023-07-13T08:11:14;32.60;99.90
2158;DHT22;41972;48.774;9.282;2023-07-13T08:13:39;33.70;99.90
2158;DHT22;41972;48.774;9.282;2023-07-13T08:16:06;34.00;99.90
2158;DHT22;41972;48.774;9.282;2023-07-13T08:18:32;31.30;99.90
2158;DHT22;41972;48.774;9.282;2023-07-13T08:20:57;33.40;99.90
2158;DHT22;41972;48.774;9.282;2023-07-13T08:23:25;36.40;99.90
2158;DHT22;41972;48.774;9.282;2023-07-13T08:25:54;34.60;99.90
2158;DHT22;41972;48.774;9.282;2023-07-13T08:28:21;31.40;99.90
2158;DHT22;41972;48.774;9.282;2023-07-13T08:30:47;34.10;99.90
2158;DHT22;41972;48.774;9.282;2023-07-13T08:33:15;35.40;99.90
2158;DHT22;41972;48.774;9.282;2023-07-13T08:35:41;31.90;99.90
2158;DHT22;41972;48.774;9.282;2023-07-13T08:38:06;29.90;99.90
2158;DHT22;41972;48.774;9.282;2023-07-13T08:40:33;30.90;99.90
2158;DHT22;41972;48.774;9.282;2023-07-13T08:43:00;31.30;99.90
2158;DHT22;41972;48.774;9.282;2023-07-13T08:48:51;32.40;99.90
2158;DHT22;41972;48.774;9.282;2023-07-13T08:51:02;31.60;99.90
2158;DHT22;41972;48.774;9.282;2023-07-13T08:53:38;33.10;99.90
2158;DHT22;41972;48.774;9.282;2023-07-13T08:56:12;34.60;99.90
2158;DHT22;41972;48.774;9.282;2023-07-13T08:58:41;35.70;99.90
2158;DHT22;41972;48.774;9.282;2023-07-13T09:01:47;33.10;99.90
2158;DHT22;41972;48.774;9.282;2023-07-13T09:04:16;32.10;99.90
2158;DHT22;41972;48.774;9.282;2023-07-13T09:06:49;33.90;99.90
2158;DHT22;41972;48.774;9.282;2023-07-13T09:09:27;32.70;99.90
2158;DHT22;41972;48.774;9.282;2023-07-13T09:14:46;34.30;99.90
2158;DHT22;41972;48.774;9.282;2023-07-13T09:17:22;33.70;99.90
2158;DHT22;41972;48.774;9.282;2023-07-13T09:20:02;34.00;99.90
2158;DHT22;41972;48.774;9.282;2023-07-13T09:22:32;31.90;99.90
2158;DHT22;41972;48.774;9.282;2023-07-13T09:25:15;30.90;99.90
2158;DHT22;41972;48.774;9.282;2023-07-13T09:27:46;31.80;99.90
2158;DHT22;41972;48.774;9.282;2023-07-13T09:30:27;33.00;99.90
2158;DHT22;41972;48.774;9.282;2023-07-13T09:32:55;31.70;99.90
2158;DHT22;41972;48.774;9.282;2023-07-13T09:35:26;29.30;99.90
2158;DHT22;41972;48.774;9.282;2023-07-13T09:38:15;29.30;99.90
2158;DHT22;41972;48.774;9.282;2023-07-13T09:43:26;31.80;99.90
2158;DHT22;41972;48.774;9.282;2023-07-13T09:45:54;31.00;99.90
2158;DHT22;41972;48.774;9.282;2023-07-13T09:48:19;32.20;99.90
2158;DHT22;41972;48.774;9.282;2023-07-13T09:50:45;32.50;99.90
2158;DHT22;41972;48.774;9.282;2023-07-13T09:53:16;33.20;99.90
2158;DHT22;41972;48.774;9.282;2023-07-13T09:55:46;27.70;99.90
2158;DHT22;41972;48.774;9.282;2023-07-13T09:58:25;28.10;99.90
2158;DHT22;41972;48.774;9.282;2023-07-13T10:01:00;30.60;99.90
2158;DHT22;41972;48.774;9.282;2023-07-13T10:03:30;32.30;99.90
2158;DHT22;41972;48.774;9.282;2023-07-13T10:08:36;28.70;99.90
2158;DHT22;41972;48.774;9.282;2023-07-13T10:11:18;27.60;99.90
2158;DHT22;41972;48.774;9.282;2023-07-13T10:13:58;28.50;99.90
2158;DHT22;41972;48.774;9.282;2023-07-13T10:16:26;29.10;99.90
2158;DHT22;41972;48.774;9.282;2023-07-13T10:18:58;28.40;99.90
2158;DHT22;41972;48.774;9.282;2023-07-13T10:21:43;29.10;99.90
2158;DHT22;41972;48.774;9.282;2023-07-13T10:24:24;29.00;99.90
2158;DHT22;41972;48.774;9.282;2023-07-13T10:27:01;31.30;99.90
2158;DHT22;41972;48.774;9.282;2023-07-13T10:29:34;32.10;99.90
2158;DHT22;41972;48.774;9.282;2023-07-13T10:32:01;29.80;99.90
2158;DHT22;41972;48.774;9.282;2023-07-13T10:34:27;29.10;99.90
2158;DHT22;41972;48.774;9.282;2023-07-13T10:36:53;29.60;99.90
2158;DHT22;41972;48.774;9.282;2023-07-13T10:39:21;31.60;99.90
2158;DHT22;41972;48.774;9.282;2023-07-13T10:41:52;31.60;99.90
2158;DHT22;41972;48.774;9.282;2023-07-13T10:44:26;30.50;99.90
2158;DHT22;41972;48.774;9.282;2023-07-13T10:46:57;28.50;99.90
2158;DHT22;41972;48.774;9.282;2023-07-13T10:49:24;27.90;99.90
2158;DHT22;41972;48.774;9.282;2023-07-13T10:51:52;27.90;99.90
2158;DHT22;41972;48.774;9.282;2023-07-13T10:54:32;28.10;99.90
2158;DHT22;41972;48.774;9.282;2023-07-13T10:57:08;28.40;99.90
2158;DHT22;41972;48.774;9.282;2023-07-13T10:59:39;27.40;99.90
2158;DHT22;41972;48.774;9.282;2023-07-13T11:02:15;27.10;99.90
2158;DHT22;41972;48.774;9.282;2023-07-13T11:04:47;26.40;99.90
2158;DHT22;41972;48.774;9.282;2023-07-13T11:07:21;26.90;99.90
2158;DHT22;41972;48.774;9.282;2023-07-13T11:09:50;28.00;99.90
2158;DHT22;41972;48.774;9.282;2023-07-13T11:25:41;28.10;99.90
2158;DHT22;41972;48.774;9.282;2023-07-13T11:30:38;27.00;99.90
2158;DHT22;41972;48.774;9.282;2023-07-13T11:33:25;27.60;99.90
2158;DHT22;41972;48.774;9.282;2023-07-13T11:36:07;26.90;99.90
2158;DHT22;41972;48.774;9.282;2023-07-13T11:38:47;26.20;99.90
2158;DHT22;41972;48.774;9.282;2023-07-13T11:41:21;26.20;99.90
2158;DHT22;41972;48.774;9.282;2023-07-13T11:43:50;25.70;99.90
2158;DHT22;41972;48.774;9.282;2023-07-13T11:48:46;26.00;99.90
2158;DHT22;41972;48.774;9.282;2023-07-13T11:51:28;25.60;99.90
2158;DHT22;41972;48.774;9.282;2023-07-13T11:53:56;25.50;99.90
2158;DHT22;41972;48.774;9.282;2023-07-13T11:56:24;25.20;99.90
2158;DHT22;41972;48.774;9.282;2023-07-13T11:58:53;25.70;99.90
2158;DHT22;41972;48.774;9.282;2023-07-13T12:01:26;25.90;99.90
2158;DHT22;41972;48.774;9.282;2023-07-13T12:03:52;25.60;99.90
2158;DHT22;41972;48.774;9.282;2023-07-13T12:06:26;25.50;99.90
2158;DHT22;41972;48.774;9.282;2023-07-13T12:08:56;25.30;99.90
2158;DHT22;41972;48.774;9.282;2023-07-13T12:11:22;25.00;99.90
2158;DHT22;41972;48.774;9.282;2023-07-13T12:13:48;25.30;99.90
2158;DHT22;41972;48.774;9.282;2023-07-13T12:16:24;25.50;99.90
2158;DHT22;41972;48.774;9.282;2023-07-13T12:18:52;25.50;99.90
2158;DHT22;41972;48.774;9.282;2023-07-13T12:21:19;25.30;99.90
2158;DHT22;41972;48.774;9.282;2023-07-13T12:23:48;25.40;99.90
2158;DHT22;41972;48.774;9.282;2023-07-13T12:26:15;25.90;99.90
2158;DHT22;41972;48.774;9.282;2023-07-13T12:28:49;26.20;99.90
2158;DHT22;41972;48.774;9.282;2023-07-13T12:31:33;26.50;99.90
2158;DHT22;41972;48.774;9.282;2023-07-13T12:34:13;26.20;99.90
2158;DHT22;41972;48.774;9.282;2023-07-13T12:36:48;26.50;99.90
2158;DHT22;41972;48.774;9.282;2023-07-13T12:39:22;27.00;99.90
2158;DHT22;41972;48.774;9.282;2023-07-13T12:41:50;26.20;99.90
2158;DHT22;41972;48.774;9.282;2023-07-13T12:44:18;26.00;99.90
2158;DHT22;41972;48.774;9.282;2023-07-13T12:47:03;26.30;99.90
2158;DHT22;41972;48.774;9.282;2023-07-13T12:49:32;26.00;99.90
2158;DHT22;41972;48.774;9.282;2023-07-13T12:52:02;26.20;99.90
2158;DHT22;41972;48.774;9.282;2023-07-13T12:54:29;25.70;99.90
2158;DHT22;41972;48.774;9.282;2023-07-13T12:56:57;25.40;99.90
2158;DHT22;41972;48.774;9.282;2023-07-13T12:59:25;25.30;99.90
2158;DHT22;41972;48.774;9.282;2023-07-13T13:01:53;25.40;99.90
2158;DHT22;41972;48.774;9.282;2023-07-13T13:04:19;25.10;99.90
2158;DHT22;41972;48.774;9.282;2023-07-13T13:06:47;25.30;99.90
2158;DHT22;41972;48.774;9.282;2023-07-13T13:09:14;25.40;99.90
2158;DHT22;41972;48.774;9.282;2023-07-13T13:11:41;25.80;99.90
2158;DHT22;41972;48.774;9.282;2023-07-13T13:14:07;25.70;99.90
2158;DHT22;41972;48.774;9.282;2023-07-13T13:16:44;26.20;99.90
2158;DHT22;41972;48.774;9.282;2023-07-13T13:19:19;26.70;99.90
2158;DHT22;41972;48.774;9.282;2023-07-13T13:21:47;26.00;99.90
2158;DHT22;41972;48.774;9.282;2023-07-13T13:24:19;26.10;99.90
2158;DHT22;41972;48.774;9.282;2023-07-13T13:26:46;26.40;99.90
2158;DHT22;41972;48.774;9.282;2023-07-13T13:29:14;25.60;99.90
2158;DHT22;41972;48.774;9.282;2023-07-13T13:31:41;25.90;99.90
2158;DHT22;41972;48.774;9.282;2023-07-13T13:34:12;26.00;99.90
2158;DHT22;41972;48.774;9.282;2023-07-13T13:36:40;26.00;99.90
2158;DHT22;41972;48.774;9.282;2023-07-13T13:41:46;26.50;99.90
2158;DHT22;41972;48.774;9.282;2023-07-13T13:44:14;26.30;99.90
2158;DHT22;41972;48.774;9.282;2023-07-13T13:46:40;26.30;99.90
2158;DHT22;41972;48.774;9.282;2023-07-13T13:49:18;26.00;99.90
2158;DHT22;41972;48.774;9.282;2023-07-13T13:51:44;26.40;99.90
2158;DHT22;41972;48.774;9.282;2023-07-13T13:54:16;26.40;99.90
2158;DHT22;41972;48.774;9.282;2023-07-13T13:56:43;26.60;99.90
2158;DHT22;41972;48.774;9.282;2023-07-13T13:59:10;26.60;99.90
2158;DHT22;41972;48.774;9.282;2023-07-13T14:01:36;26.50;99.90
2158;DHT22;41972;48.774;9.282;2023-07-13T14:04:03;26.00;99.90
2158;DHT22;41972;48.774;9.282;2023-07-13T14:06:29;26.00;99.90
2158;DHT22;41972;48.774;9.282;2023-07-13T14:08:55;26.30;99.90
2158;DHT22;41972;48.774;9.282;2023-07-13T14:11:21;26.50;99.90
2158;DHT22;41972;48.774;9.282;2023-07-13T14:13:56;26.00;99.90
2158;DHT22;41972;48.774;9.282;2023-07-13T14:16:24;26.10;99.90
2158;DHT22;41972;48.774;9.282;2023-07-13T14:18:53;26.20;99.90
2158;DHT22;41972;48.774;9.282;2023-07-13T14:21:21;25.90;99.90
2158;DHT22;41972;48.774;9.282;2023-07-13T14:23:47;25.80;99.90
2158;DHT22;41972;48.774;9.282;2023-07-13T14:26:15;25.60;99.90
2158;DHT22;41972;48.774;9.282;2023-07-13T14:28:44;25.40;99.90
2158;DHT22;41972;48.774;9.282;2023-07-13T14:31:11;25.70;99.90
2158;DHT22;41972;48.774;9.282;2023-07-13T14:33:37;25.90;99.90
2158;DHT22;41972;48.774;9.282;2023-07-13T14:36:05;26.20;99.90
2158;DHT22;41972;48.774;9.282;2023-07-13T14:38:39;25.80;99.90
2158;DHT22;41972;48.774;9.282;2023-07-13T14:41:04;25.50;99.90
2158;DHT22;41972;48.774;9.282;2023-07-13T14:43:30;25.50;99.90
2158;DHT22;41972;48.774;9.282;2023-07-13T14:45:55;25.50;99.90
2158;DHT22;41972;48.774;9.282;2023-07-13T14:48:23;25.70;99.90
2158;DHT22;41972;48.774;9.282;2023-07-13T14:50:58;25.50;99.90
2158;DHT22;41972;48.774;9.282;2023-07-13T14:53:26;25.10;99.90
2158;DHT22;41972;48.774;9.282;2023-07-13T14:55:53;25.20;99.90
2158;DHT22;41972;48.774;9.282;2023-07-13T14:58:19;25.60;99.90
2158;DHT22;41972;48.774;9.282;2023-07-13T15:00:45;25.90;99.90
2158;DHT22;41972;48.774;9.282;2023-07-13T15:03:20;25.60;99.90
2158;DHT22;41972;48.774;9.282;2023-07-13T15:05:47;25.90;99.90
2158;DHT22;41972;48.774;9.282;2023-07-13T15:08:13;25.40;99.90
2158;DHT22;41972;48.774;9.282;2023-07-13T15:10:40;24.90;99.90
2158;DHT22;41972;48.774;9.282;2023-07-13T15:13:21;25.30;99.90
2158;DHT22;41972;48.774;9.282;2023-07-13T15:15:50;25.70;99.90
2158;DHT22;41972;48.774;9.282;2023-07-13T15:18:19;25.40;99.90
2158;DHT22;41972;48.774;9.282;2023-07-13T15:20:47;25.70;99.90
2158;DHT22;41972;48.774;9.282;2023-07-13T15:23:15;26.10;99.90
2158;DHT22;41972;48.774;9.282;2023-07-13T15:25:42;26.60;99.90
2158;DHT22;41972;48.774;9.282;2023-07-13T15:28:09;26.70;99.90
2158;DHT22;41972;48.774;9.282;2023-07-13T15:30:49;26.40;99.90
2158;DHT22;41972;48.774;9.282;2023-07-13T15:33:28;26.00;99.90
2158;DHT22;41972;48.774;9.282;2023-07-13T15:35:54;25.70;99.90
2158;DHT22;41972;48.774;9.282;2023-07-13T15:38:23;25.70;99.90
2158;DHT22;41972;48.774;9.282;2023-07-13T15:40:50;25.60;99.90
2158;DHT22;41972;48.774;9.282;2023-07-13T15:43:18;25.30;99.90
2158;DHT22;41972;48.774;9.282;2023-07-13T15:45:45;25.50;99.90
2158;DHT22;41972;48.774;9.282;2023-07-13T15:48:22;25.40;99.90
2158;DHT22;41972;48.774;9.282;2023-07-13T15:50:54;25.10;99.90
2158;DHT22;41972;48.774;9.282;2023-07-13T15:53:30;25.20;99.90
2158;DHT22;41972;48.774;9.282;2023-07-13T15:55:57;25.50;99.90
2158;DHT22;41972;48.774;9.282;2023-07-13T15:58:25;25.10;99.90
2158;DHT22;41972;48.774;9.282;2023-07-13T16:00:51;25.30;99.90
2158;DHT22;41972;48.774;9.282;2023-07-13T16:03:19;25.80;99.90
2158;DHT22;41972;48.774;9.282;2023-07-13T16:05:45;25.90;99.90
2158;DHT22;41972;48.774;9.282;2023-07-13T16:08:41;25.90;99.90
2158;DHT22;41972;48.774;9.282;2023-07-13T16:11:15;25.90;99.90
2158;DHT22;41972;48.774;9.282;2023-07-13T16:13:42;25.80;99.90
2158;DHT22;41972;48.774;9.282;2023-07-13T16:16:11;25.60;99.90
2158;DHT22;41972;48.774;9.282;2023-07-13T16:18:37;25.40;99.90
2158;DHT22;41972;48.774;9.282;2023-07-13T16:21:09;25.50;99.90
2158;DHT22;41972;48.774;9.282;2023-07-13T16:23:36;25.50;99.90
2158;DHT22;41972;48.774;9.282;2023-07-13T16:26:03;25.50;99.90
2158;DHT22;41972;48.774;9.282;2023-07-13T16:28:30;25.60;99.90
2158;DHT22;41972;48.774;9.282;2023-07-13T16:30:56;25.40;99.90
2158;DHT22;41972;48.774;9.282;2023-07-13T16:33:22;25.30;99.90
2158;DHT22;41972;48.774;9.282;2023-07-13T16:35:47;25.30;99.90
2158;DHT22;41972;48.774;9.282;2023-07-13T16:38:19;25.30;99.90
2158;DHT22;41972;48.774;9.282;2023-07-13T16:40:44;25.30;99.90
2158;DHT22;41972;48.774;9.282;2023-07-13T16:43:17;25.20;99.90
2158;DHT22;41972;48.774;9.282;2023-07-13T16:45:47;24.80;99.90
2158;DHT22;41972;48.774;9.282;2023-07-13T16:48:16;24.80;99.90
2158;DHT22;41972;48.774;9.282;2023-07-13T16:50:43;24.80;99.90
2158;DHT22;41972;48.774;9.282;2023-07-13T16:55:49;25.00;99.90
2158;DHT22;41972;48.774;9.282;2023-07-13T16:58:15;24.90;99.90
2158;DHT22;41972;48.774;9.282;2023-07-13T17:00:41;24.70;99.90
2158;DHT22;41972;48.774;9.282;2023-07-13T17:03:08;24.60;99.90
2158;DHT22;41972;48.774;9.282;2023-07-13T17:05:38;24.70;99.90